createdAt,value
2023-04-02T00:01:23.936Z,5.78
2023-04-02T00:03:50.385Z,5.78
2023-04-02T00:06:25.961Z,5.78
2023-04-02T00:08:52.427Z,5.79
2023-04-02T00:11:25.494Z,5.79
2023-04-02T00:13:52.016Z,5.86
2023-04-02T00:16:19.943Z,5.81
2023-04-02T00:18:46.957Z,5.78
2023-04-02T00:21:13.350Z,5.79
2023-04-02T00:23:40.412Z,5.75
2023-04-02T00:26:19.654Z,5.80
2023-04-02T00:28:46.200Z,5.69
2023-04-02T00:31:12.645Z,5.69
2023-04-02T00:33:39.102Z,5.60
2023-04-02T00:36:06.018Z,5.62
2023-04-02T00:38:32.858Z,5.60
2023-04-02T00:41:00.436Z,5.60
2023-04-02T00:43:27.603Z,5.54
2023-04-02T00:45:54.957Z,5.51
2023-04-02T00:48:24.588Z,5.56
2023-04-02T00:50:51.031Z,5.46
2023-04-02T00:53:20.998Z,5.42
2023-04-02T00:55:47.519Z,5.42
2023-04-02T00:58:16.877Z,5.44
2023-04-02T01:00:43.289Z,5.47
2023-04-02T01:03:16.119Z,5.47
2023-04-02T01:05:46.107Z,5.43
2023-04-02T01:08:32.830Z,5.45
2023-04-02T01:10:59.293Z,5.51
2023-04-02T01:13:25.705Z,5.55
2023-04-02T01:16:31.018Z,5.47
2023-04-02T01:19:01.187Z,5.49
2023-04-02T01:21:57.014Z,5.49
2023-04-02T01:24:23.756Z,5.41
2023-04-02T01:26:50.184Z,5.53
2023-04-02T01:29:17.590Z,5.48
2023-04-02T01:31:44.526Z,5.56
2023-04-02T01:34:12.026Z,5.56
2023-04-02T01:36:38.417Z,5.56
2023-04-02T01:39:15.678Z,5.48
2023-04-02T01:41:47.894Z,5.50
2023-04-02T01:44:15.756Z,5.47
2023-04-02T01:46:42.394Z,5.59
2023-04-02T01:49:12.845Z,5.44
2023-04-02T01:51:40.847Z,5.48
2023-04-02T01:54:07.304Z,5.51
2023-04-02T01:56:33.778Z,5.47
2023-04-02T01:59:00.240Z,5.50
2023-04-02T02:01:36.705Z,5.44
2023-04-02T02:04:03.245Z,5.44
2023-04-02T02:06:29.685Z,5.48
2023-04-02T02:09:02.730Z,5.47
2023-04-02T02:11:29.538Z,5.44
2023-04-02T02:13:56.908Z,5.45
2023-04-02T02:16:23.482Z,5.42
2023-04-02T02:18:51.191Z,5.41
2023-04-02T02:21:36.508Z,5.41
2023-04-02T02:24:03.046Z,5.38
2023-04-02T02:26:29.508Z,5.43
2023-04-02T02:28:56.136Z,5.32
2023-04-02T02:31:23.539Z,5.40
2023-04-02T02:33:50.353Z,5.32
2023-04-02T02:36:19.757Z,5.41
2023-04-02T02:38:54.541Z,5.37
2023-04-02T02:41:24.385Z,5.43
2023-04-02T02:44:01.621Z,5.34
2023-04-02T02:46:28.381Z,5.43
2023-04-02T02:48:55.065Z,5.39
2023-04-02T02:51:23.807Z,5.36
2023-04-02T02:53:50.972Z,5.45
2023-04-02T02:56:17.439Z,5.44
2023-04-02T02:58:43.799Z,5.39
2023-04-02T03:01:10.432Z,5.40
2023-04-02T03:03:37.012Z,5.45
2023-04-02T03:06:04.489Z,5.38
2023-04-02T03:08:36.995Z,5.33
2023-04-02T03:11:05.377Z,5.37
2023-04-02T03:13:32.820Z,5.37
2023-04-02T03:16:18.952Z,5.35
2023-04-02T03:18:59.596Z,5.39
2023-04-02T03:21:36.953Z,5.38
2023-04-02T03:24:03.368Z,5.34
2023-04-02T03:26:29.820Z,5.33
2023-04-02T03:29:00.764Z,5.37
2023-04-02T03:31:28.184Z,5.41
2023-04-02T03:33:55.738Z,5.39
2023-04-02T03:36:32.183Z,5.45
2023-04-02T03:39:10.752Z,5.36
2023-04-02T03:41:51.167Z,5.37
2023-04-02T03:44:21.987Z,5.38
2023-04-02T03:46:52.842Z,5.36
2023-04-02T03:49:20.334Z,5.34
2023-04-02T03:51:52.450Z,5.29
2023-04-02T03:54:18.896Z,5.37
2023-04-02T03:56:45.497Z,5.32
2023-04-02T03:59:15.028Z,5.34
2023-04-02T04:01:55.292Z,5.39
2023-04-02T04:04:21.984Z,5.34
2023-04-02T04:06:49.455Z,5.34
2023-04-02T04:09:27.137Z,5.29
2023-04-02T04:11:55.027Z,5.32
2023-04-02T04:14:28.146Z,5.37
2023-04-02T04:16:58.638Z,5.36
2023-04-02T04:19:28.090Z,5.33
2023-04-02T04:21:54.501Z,5.33
2023-04-02T04:24:22.824Z,5.37
2023-04-02T04:26:56.911Z,5.40
2023-04-02T04:29:29.576Z,5.23
2023-04-02T04:31:56.247Z,5.28
2023-04-02T04:34:37.556Z,5.28
2023-04-02T04:37:04.113Z,5.29
2023-04-02T04:39:33.751Z,5.22
2023-04-02T04:42:00.683Z,5.31
2023-04-02T04:44:36.258Z,5.35
2023-04-02T04:47:03.790Z,5.35
2023-04-02T04:49:38.941Z,5.39
2023-04-02T04:52:16.841Z,5.28
2023-04-02T04:54:43.330Z,5.21
2023-04-02T04:57:19.498Z,5.14
2023-04-02T04:59:47.921Z,4.98
2023-04-02T05:02:16.563Z,5.09
2023-04-02T05:04:43.321Z,5.10
2023-04-02T05:07:12.872Z,5.02
2023-04-02T05:09:42.941Z,5.07
2023-04-02T05:12:18.608Z,5.02
2023-04-02T05:14:52.272Z,5.07
2023-04-02T05:17:23.947Z,5.00
2023-04-02T05:19:59.092Z,5.00
2023-04-02T05:22:28.167Z,5.02
2023-04-02T05:24:57.439Z,5.11
2023-04-02T05:27:26.553Z,4.99
2023-04-02T05:29:55.881Z,5.03
2023-04-02T05:32:24.521Z,4.85
2023-04-02T05:34:51.618Z,4.90
2023-04-02T05:37:19.141Z,5.00
2023-04-02T05:39:45.837Z,5.09
2023-04-02T05:42:20.289Z,5.10
2023-04-02T05:45:09.943Z,5.03
2023-04-02T05:47:36.479Z,5.04
2023-04-02T05:50:08.991Z,5.11
2023-04-02T05:52:40.106Z,5.08
2023-04-02T05:55:12.688Z,5.11
2023-04-02T05:57:44.829Z,5.06
2023-04-02T06:00:18.245Z,5.07
2023-04-02T06:02:45.117Z,5.17
2023-04-02T06:05:11.811Z,5.04
2023-04-02T06:07:42.946Z,4.96
2023-04-02T06:10:18.657Z,4.97
2023-04-02T06:12:58.034Z,5.09
2023-04-02T06:15:24.560Z,5.01
2023-04-02T06:17:51.790Z,5.03
2023-04-02T06:20:18.886Z,5.01
2023-04-02T06:22:45.595Z,5.08
2023-04-02T06:25:15.549Z,5.07
2023-04-02T06:27:42.063Z,5.14
2023-04-02T06:30:10.248Z,5.11
2023-04-02T06:32:36.709Z,5.06
2023-04-02T06:35:03.238Z,5.12
2023-04-02T06:37:36.520Z,5.09
2023-04-02T06:40:03.730Z,5.00
2023-04-02T06:42:39.446Z,5.13
2023-04-02T06:45:06.130Z,5.14
2023-04-02T06:47:36.364Z,5.20
2023-04-02T06:50:02.872Z,5.20
2023-04-02T06:52:31.601Z,5.20
2023-04-02T06:54:58.872Z,5.27
2023-04-02T06:57:25.399Z,5.34
2023-04-02T06:59:51.923Z,5.34
2023-04-02T07:02:22.479Z,5.36
2023-04-02T07:04:48.919Z,5.40
2023-04-02T07:07:15.415Z,5.38
2023-04-02T07:09:41.802Z,5.53
2023-04-02T07:12:12.187Z,5.59
2023-04-02T07:14:38.643Z,5.60
2023-04-02T07:17:05.110Z,5.60
2023-04-02T07:19:31.648Z,5.73
2023-04-02T07:21:58.082Z,5.76
2023-04-02T07:24:24.644Z,5.74
2023-04-02T07:26:51.049Z,5.77
2023-04-02T07:29:17.448Z,5.73
2023-04-02T07:31:44.003Z,5.82
2023-04-02T07:34:10.470Z,5.89
2023-04-02T07:36:37.505Z,5.94
2023-04-02T07:39:04.072Z,5.88
2023-04-02T07:41:30.498Z,5.89
2023-04-02T07:43:57.064Z,5.96
2023-04-02T07:46:23.584Z,5.95
2023-04-02T07:48:50.162Z,5.99
2023-04-02T07:51:17.694Z,6.05
2023-04-02T07:53:44.126Z,5.99
2023-04-02T07:56:13.659Z,6.03
2023-04-02T07:58:40.116Z,6.11
2023-04-02T08:01:11.988Z,6.13
2023-04-02T08:03:38.587Z,6.06
2023-04-02T08:06:05.204Z,6.11
2023-04-02T08:08:31.614Z,6.08
2023-04-02T08:10:58.090Z,6.16
2023-04-02T08:13:24.566Z,6.03
2023-04-02T08:15:51.044Z,6.08
2023-04-02T08:18:17.468Z,5.95
2023-04-02T08:20:43.884Z,5.97
2023-04-02T08:23:13.958Z,6.04
2023-04-02T08:25:40.381Z,6.13
2023-04-02T08:28:06.859Z,6.21
2023-04-02T08:30:34.213Z,6.38
2023-04-02T08:33:01.025Z,6.47
2023-04-02T08:35:27.808Z,6.44
2023-04-02T08:37:54.270Z,6.39
2023-04-02T08:40:22.775Z,6.35
2023-04-02T08:43:03.343Z,6.41
2023-04-02T08:45:47.126Z,6.30
2023-04-02T08:48:13.605Z,6.45
2023-04-02T08:50:43.376Z,6.50
2023-04-02T08:53:12.525Z,6.46
2023-04-02T08:55:40.921Z,6.61
2023-04-02T08:58:29.326Z,6.72
2023-04-02T09:00:55.964Z,6.61
2023-04-02T09:03:29.676Z,6.94
2023-04-02T09:05:56.152Z,7.01
2023-04-02T09:08:23.173Z,7.26
2023-04-02T09:11:19.224Z,7.32
2023-04-02T09:13:46.448Z,7.53
2023-04-02T09:16:13.897Z,7.30
2023-04-02T09:18:40.468Z,7.42
2023-04-02T09:21:21.939Z,7.22
2023-04-02T09:23:48.645Z,7.13
2023-04-02T09:26:25.316Z,7.47
2023-04-02T09:28:51.883Z,7.66
2023-04-02T09:31:26.912Z,7.63
2023-04-02T09:33:53.431Z,7.39
2023-04-02T09:36:40.146Z,7.42
2023-04-02T09:39:15.202Z,7.27
2023-04-02T09:41:41.759Z,7.33
2023-04-02T09:44:21.587Z,7.37
2023-04-02T09:46:58.456Z,7.25
2023-04-02T09:49:28.589Z,7.14
2023-04-02T09:52:08.536Z,7.01
2023-04-02T09:54:35.106Z,7.10
2023-04-02T09:57:02.435Z,7.44
2023-04-02T09:59:28.950Z,7.39
2023-04-02T10:01:55.808Z,7.41
2023-04-02T10:04:41.804Z,7.69
2023-04-02T10:07:11.181Z,7.87
2023-04-02T10:09:37.693Z,7.77
2023-04-02T10:12:08.331Z,7.78
2023-04-02T10:14:38.817Z,8.01
2023-04-02T10:17:07.894Z,8.38
2023-04-02T10:19:34.975Z,8.48
2023-04-02T10:22:03.440Z,8.27
2023-04-02T10:24:29.943Z,8.09
2023-04-02T10:26:59.476Z,8.41
2023-04-02T10:29:44.160Z,8.10
2023-04-02T10:32:12.108Z,7.94
2023-04-02T10:34:43.537Z,7.77
2023-04-02T10:37:36.163Z,7.79
2023-04-02T10:40:21.286Z,7.92
2023-04-02T10:42:59.987Z,7.97
2023-04-02T10:45:33.971Z,8.21
2023-04-02T10:48:03.155Z,8.25
2023-04-02T10:50:39.826Z,8.14
2023-04-02T10:53:10.108Z,8.19
2023-04-02T10:55:37.352Z,8.16
2023-04-02T10:58:05.897Z,8.21
2023-04-02T11:00:33.790Z,8.06
2023-04-02T11:03:21.091Z,8.02
2023-04-02T11:05:48.267Z,8.23
2023-04-02T11:08:20.772Z,8.05
2023-04-02T11:10:55.480Z,7.96
2023-04-02T11:13:28.882Z,7.70
2023-04-02T11:15:55.357Z,7.44
2023-04-02T11:18:22.758Z,7.51
2023-04-02T11:20:59.409Z,7.60
2023-04-02T11:23:29.907Z,7.63
2023-04-02T11:26:15.378Z,7.47
2023-04-02T11:28:41.844Z,7.48
2023-04-02T11:31:08.425Z,7.36
2023-04-02T11:33:39.246Z,7.48
2023-04-02T11:36:25.011Z,7.67
2023-04-02T11:38:52.448Z,7.71
2023-04-02T11:41:57.589Z,7.52
2023-04-02T11:44:24.245Z,7.52
2023-04-02T11:46:50.660Z,7.32
2023-04-02T11:49:33.133Z,7.32
2023-04-02T11:52:10.885Z,7.61
2023-04-02T11:54:38.515Z,7.72
2023-04-02T11:57:19.635Z,7.77
2023-04-02T12:00:05.827Z,7.52
2023-04-02T12:02:37.192Z,7.60
2023-04-02T12:05:03.802Z,7.34
2023-04-02T12:07:30.333Z,7.11
2023-04-02T12:09:57.673Z,7.28
2023-04-02T12:12:24.065Z,7.37
2023-04-02T12:14:53.985Z,7.29
2023-04-02T12:17:23.461Z,7.42
2023-04-02T12:19:50.504Z,7.52
2023-04-02T12:22:18.825Z,7.30
2023-04-02T12:24:45.824Z,7.68
2023-04-02T12:27:19.588Z,7.84
2023-04-02T12:29:46.042Z,7.98
2023-04-02T12:32:32.775Z,7.89
2023-04-02T12:35:02.988Z,7.90
2023-04-02T12:37:29.559Z,7.71
2023-04-02T12:39:59.780Z,7.60
2023-04-02T12:42:30.727Z,7.56
2023-04-02T12:44:57.166Z,7.68
2023-04-02T12:47:23.784Z,7.88
2023-04-02T12:49:50.296Z,7.79
2023-04-02T12:52:18.095Z,7.45
2023-04-02T12:54:45.593Z,7.47
2023-04-02T12:57:22.257Z,7.66
2023-04-02T12:59:49.003Z,8.21
2023-04-02T13:02:21.376Z,8.47
2023-04-02T13:04:51.336Z,8.49
2023-04-02T13:07:18.178Z,8.59
2023-04-02T13:09:45.743Z,8.75
2023-04-02T13:12:31.321Z,8.96
2023-04-02T13:14:58.061Z,8.80
2023-04-02T13:17:36.608Z,7.99
2023-04-02T13:20:21.660Z,7.84
2023-04-02T13:22:48.166Z,7.69
2023-04-02T13:25:14.731Z,7.78
2023-04-02T13:27:41.388Z,7.65
2023-04-02T13:30:09.026Z,7.30
2023-04-02T13:32:35.493Z,7.26
2023-04-02T13:35:02.014Z,6.71
2023-04-02T13:37:28.601Z,6.80
2023-04-02T13:39:55.181Z,6.56
2023-04-02T13:42:21.708Z,6.39
2023-04-02T13:44:48.285Z,6.34
2023-04-02T13:47:14.726Z,6.24
2023-04-02T13:49:41.120Z,6.55
2023-04-02T13:52:09.906Z,6.42
2023-04-02T13:54:55.488Z,6.19
2023-04-02T13:57:22.068Z,6.31
2023-04-02T13:59:48.554Z,6.36
2023-04-02T14:02:18.787Z,6.43
2023-04-02T14:04:50.523Z,6.42
2023-04-02T14:07:20.162Z,6.07
2023-04-02T14:09:49.645Z,6.12
2023-04-02T14:12:34.953Z,6.28
2023-04-02T14:15:17.069Z,6.22
2023-04-02T14:17:53.428Z,6.14
2023-04-02T14:20:38.975Z,6.41
2023-04-02T14:23:18.348Z,5.88
2023-04-02T14:25:50.690Z,5.85
2023-04-02T14:28:20.220Z,5.85
2023-04-02T14:30:52.503Z,5.96
2023-04-02T14:33:40.684Z,5.69
2023-04-02T14:36:27.824Z,5.59
2023-04-02T14:39:03.546Z,5.54
2023-04-02T14:41:38.987Z,5.63
2023-04-02T14:44:05.743Z,5.59
2023-04-02T14:46:32.788Z,5.54
2023-04-02T14:49:01.624Z,5.59
2023-04-02T14:51:35.693Z,5.43
2023-04-02T14:54:21.057Z,5.27
2023-04-02T14:56:49.218Z,5.18
2023-04-02T14:59:34.915Z,5.15
2023-04-02T15:02:04.644Z,5.14
2023-04-02T15:04:32.898Z,4.91
2023-04-02T15:07:01.892Z,5.03
2023-04-02T15:09:29.355Z,4.75
2023-04-02T15:11:57.226Z,4.68
2023-04-02T15:14:24.161Z,4.59
2023-04-02T15:16:50.564Z,4.63
2023-04-02T15:19:17.328Z,4.53
2023-04-02T15:21:57.115Z,4.62
2023-04-02T15:24:26.122Z,4.70
2023-04-02T15:27:07.194Z,4.63
2023-04-02T15:29:54.849Z,4.48
2023-04-02T15:32:33.654Z,4.57
2023-04-02T15:35:09.456Z,4.60
2023-04-02T15:37:39.630Z,4.32
2023-04-02T15:40:24.847Z,4.64
2023-04-02T15:43:11.593Z,4.50
2023-04-02T15:45:44.343Z,4.43
2023-04-02T15:48:28.992Z,4.53
2023-04-02T15:51:14.141Z,4.62
2023-04-02T15:53:46.839Z,4.62
2023-04-02T15:56:16.286Z,4.73
2023-04-02T15:58:51.481Z,4.75
2023-04-02T16:01:22.726Z,4.66
2023-04-02T16:04:01.531Z,4.76
2023-04-02T16:06:38.029Z,4.77
2023-04-02T16:09:33.957Z,4.67
2023-04-02T16:12:11.789Z,4.69
2023-04-02T16:14:38.410Z,4.87
2023-04-02T16:17:11.185Z,4.90
2023-04-02T16:19:45.290Z,4.75
2023-04-02T16:22:12.917Z,4.88
2023-04-02T16:24:39.443Z,4.75
2023-04-02T16:27:24.824Z,4.59
2023-04-02T16:29:55.166Z,4.63
2023-04-02T16:32:25.052Z,4.58
2023-04-02T16:35:32.584Z,4.33
2023-04-02T16:37:53.983Z,4.38
2023-04-02T16:40:35.672Z,4.28
2023-04-02T16:43:08.301Z,4.27
2023-04-02T16:45:53.416Z,4.20
2023-04-02T16:48:19.925Z,4.12
2023-04-02T16:51:05.281Z,3.98
2023-04-02T16:53:47.837Z,3.87
2023-04-02T16:56:21.093Z,3.77
2023-04-02T16:58:59.957Z,3.80
2023-04-02T17:01:29.232Z,3.77
2023-04-02T17:06:42.762Z,3.78
2023-04-02T17:09:09.340Z,3.37
2023-04-02T17:11:41.720Z,3.59
2023-04-02T17:14:13.131Z,3.72
2023-04-02T17:16:39.570Z,3.43
2023-04-02T17:19:08.997Z,3.39
2023-04-02T17:21:35.514Z,3.41
2023-04-02T17:24:08.093Z,3.35
2023-04-02T17:26:34.702Z,3.25
2023-04-02T17:29:01.745Z,3.05
2023-04-02T17:31:28.681Z,2.94
2023-04-02T17:33:55.205Z,2.75
2023-04-02T17:36:30.932Z,2.73
2023-04-02T17:39:00.474Z,2.68
2023-04-02T17:41:47.165Z,2.71
2023-04-02T17:44:46.125Z,2.68
2023-04-02T17:47:15.393Z,2.46
2023-04-02T17:49:52.868Z,2.46
2023-04-02T17:52:29.958Z,2.35
2023-04-02T17:55:02.570Z,2.11
2023-04-02T17:57:55.207Z,2.25
2023-04-02T18:00:21.738Z,2.34
2023-04-02T18:03:00.265Z,2.11
2023-04-02T18:05:53.350Z,2.12
2023-04-02T18:08:35.172Z,2.08
2023-04-02T18:11:14.219Z,1.99
2023-04-02T18:13:49.390Z,1.99
2023-04-02T18:16:42.051Z,2.11
2023-04-02T18:19:26.905Z,2.27
2023-04-02T18:21:56.047Z,2.17
2023-04-02T18:24:41.272Z,2.23
2023-04-02T18:27:26.730Z,2.18
2023-04-02T18:30:02.537Z,1.99
2023-04-02T18:32:47.125Z,1.75
2023-04-02T18:35:15.448Z,1.84
2023-04-02T18:37:51.147Z,1.95
2023-04-02T18:40:50.183Z,1.94
2023-04-02T18:43:16.628Z,1.85
2023-04-02T18:45:49.396Z,1.82
2023-04-02T18:48:26.858Z,1.72
2023-04-02T18:50:53.389Z,1.88
2023-04-02T18:53:21.853Z,1.76
2023-04-02T18:55:49.437Z,1.82
2023-04-02T18:58:17.846Z,1.75
2023-04-02T19:00:44.347Z,1.68
2023-04-02T19:03:10.835Z,1.68
2023-04-02T19:05:56.461Z,1.66
2023-04-02T19:08:39.485Z,1.58
2023-04-02T19:11:32.541Z,1.82
2023-04-02T19:13:59.777Z,1.70
2023-04-02T19:16:45.164Z,1.81
2023-04-02T19:19:17.129Z,1.62
2023-04-02T19:21:56.014Z,1.78
2023-04-02T19:24:26.173Z,1.86
2023-04-02T19:26:59.730Z,1.73
2023-04-02T19:29:30.691Z,1.63
2023-04-02T19:32:15.700Z,1.72
2023-04-02T19:34:43.141Z,1.68
2023-04-02T19:37:16.895Z,1.69
2023-04-02T19:40:02.262Z,1.82
2023-04-02T19:42:30.541Z,1.74
2023-04-02T19:44:56.964Z,1.86
2023-04-02T19:47:23.401Z,1.79
2023-04-02T19:49:50.044Z,1.79
2023-04-02T19:52:16.582Z,1.62
2023-04-02T19:54:42.935Z,1.58
2023-04-02T19:57:12.127Z,1.57
2023-04-02T19:59:38.674Z,1.68
2023-04-02T20:02:05.371Z,1.59
2023-04-02T20:04:31.971Z,1.65
2023-04-02T20:06:58.499Z,1.62
2023-04-02T20:09:24.943Z,1.64
2023-04-02T20:11:51.541Z,1.74
2023-04-02T20:14:17.982Z,1.60
2023-04-02T20:16:45.776Z,1.63
2023-04-02T20:19:12.591Z,1.75
2023-04-02T20:21:39.048Z,1.67
2023-04-02T20:24:06.128Z,1.70
2023-04-02T20:26:32.765Z,1.67
2023-04-02T20:28:59.236Z,1.62
2023-04-02T20:31:25.801Z,1.66
2023-04-02T20:33:58.687Z,1.65
2023-04-02T20:36:25.366Z,1.68
2023-04-02T20:38:51.897Z,1.71
2023-04-02T20:41:18.384Z,1.71
2023-04-02T20:43:44.891Z,1.54
2023-04-02T20:46:12.366Z,1.61
2023-04-02T20:48:39.250Z,1.64
2023-04-02T20:51:06.040Z,1.75
2023-04-02T20:53:32.993Z,1.66
2023-04-02T20:56:06.065Z,1.50
2023-04-02T20:58:32.777Z,1.60
2023-04-02T21:01:06.588Z,1.47
2023-04-02T21:03:33.107Z,1.51
2023-04-02T21:05:59.667Z,1.58
2023-04-02T21:08:26.260Z,1.59
2023-04-02T21:10:52.674Z,1.37
2023-04-02T21:13:19.245Z,1.47
2023-04-02T21:15:45.824Z,1.50
2023-04-02T21:18:12.353Z,1.55
2023-04-02T21:20:39.016Z,1.53
2023-04-02T21:23:05.547Z,1.50
2023-04-02T21:25:31.944Z,1.50
2023-04-02T21:27:58.322Z,1.53
2023-04-02T21:30:24.755Z,1.48
2023-04-02T21:32:51.244Z,1.33
2023-04-02T21:35:17.738Z,1.39
2023-04-02T21:37:45.397Z,1.39
2023-04-02T21:40:11.868Z,1.36
2023-04-02T21:42:38.250Z,1.38
2023-04-02T21:45:04.931Z,1.37
2023-04-02T21:47:31.449Z,1.39
2023-04-02T21:49:57.934Z,1.44
2023-04-02T21:52:24.497Z,1.45
2023-04-02T21:54:50.969Z,1.39
2023-04-02T21:57:19.052Z,1.33
2023-04-02T21:59:45.748Z,1.35
2023-04-02T22:02:12.234Z,1.38
2023-04-02T22:04:38.643Z,1.37
2023-04-02T22:07:05.098Z,1.34
2023-04-02T22:09:31.532Z,1.30
2023-04-02T22:11:58.100Z,1.27
2023-04-02T22:14:24.612Z,1.27
2023-04-02T22:16:51.122Z,1.48
2023-04-02T22:19:17.694Z,1.29
2023-04-02T22:21:44.341Z,1.34
2023-04-02T22:24:14.346Z,1.22
2023-04-02T22:26:40.927Z,1.30
2023-04-02T22:29:07.584Z,1.20
2023-04-02T22:31:34.158Z,1.18
2023-04-02T22:34:00.696Z,1.15
2023-04-02T22:36:27.329Z,1.12
2023-04-02T22:38:53.840Z,1.28
2023-04-02T22:41:23.320Z,1.06
2023-04-02T22:43:49.878Z,1.05
2023-04-02T22:46:17.081Z,1.09
2023-04-02T22:48:43.697Z,1.08
2023-04-02T22:51:10.575Z,1.19
2023-04-02T22:53:37.055Z,1.12
2023-04-02T22:56:10.837Z,1.05
2023-04-02T22:58:37.420Z,1.04
2023-04-02T23:01:07.583Z,0.98
2023-04-02T23:03:34.156Z,1.05
2023-04-02T23:06:00.969Z,1.06
2023-04-02T23:08:27.449Z,1.12
2023-04-02T23:10:59.991Z,1.15
2023-04-02T23:13:26.384Z,1.07
2023-04-02T23:15:52.856Z,1.17
2023-04-02T23:18:19.386Z,1.05
2023-04-02T23:20:45.874Z,1.09
2023-04-02T23:23:12.342Z,1.09
2023-04-02T23:25:38.889Z,1.10
2023-04-02T23:28:05.305Z,1.10
2023-04-02T23:30:31.691Z,1.07
2023-04-02T23:32:58.134Z,1.11
2023-04-02T23:35:24.723Z,1.12
2023-04-02T23:37:51.186Z,1.17
2023-04-02T23:40:17.813Z,1.16
2023-04-02T23:42:44.205Z,1.25
2023-04-02T23:45:10.750Z,1.16
2023-04-02T23:47:37.389Z,1.15
2023-04-02T23:50:04.007Z,1.10
2023-04-02T23:52:30.520Z,1.10
2023-04-02T23:54:57.066Z,1.01
2023-04-02T23:57:23.505Z,1.07
2023-04-02T23:59:50.002Z,1.23
